Arrow Post — CG2882 — position and weather

sailwx.info

Track history (hours):
 
Tides and Currents Weather Stations Pressure Air Temp Water Temp Dewpoint Dewpoint Depression Visibility Wind Speed Wind Dir Waves Ship Positions

Arrow Post

Last reported at 2018-Mar-16 23:04 UTC. Time now 2018-Apr-21 06:07 UTC.
Position N 48°41' W 123°21'.
Warning: this ship's position is 35 days out of date.

Length 29 m.

Type: Other ship. MMSI: 316001090.

Date/timePositionNaut miles runAvg speedWind from/ knotsBaromVisibWave heightAir tempDewpointWater temp
2018-Mar-16 23:04N 48°41' W 123°21'1 9.6
2018-Mar-16 23:00N 48°40' W 123°21'5 9.1
2018-Mar-16 22:26N 48°35' W 123°19'4 9.1
2018-Mar-16 22:00N 48°32' W 123°17'4 7.3
2018-Mar-16 21:30N 48°28' W 123°15'4 8.5
2018-Mar-16 21:00N 48°24' W 123°17'5 9.0
2018-Mar-16 20:30N 48°24' W 123°24'1 2.8
2018-Mar-16 19:58N 48°25' W 123°22'0 0.0
2018-Mar-16 19:25N 48°25' W 123°22'1 1.3
2018-Mar-16 19:01N 48°25' W 123°23'1 1.0
2018-Mar-16 18:16N 48°25' W 123°24'1 4.0
2018-Mar-16 17:59N 48°25' W 123°22'0 0.0
2018-Mar-16 17:30N 48°25' W 123°22'0 0.0
2018-Mar-16 17:00N 48°25' W 123°22'0 0.0
2018-Mar-16 16:30N 48°25' W 123°22'0 0.0
2018-Mar-16 16:00N 48°25' W 123°22'0 0.0
2018-Mar-16 15:30N 48°25' W 123°22'0 0.0
2018-Mar-16 15:00N 48°25' W 123°22'0 0.0
2018-Mar-16 14:29N 48°25' W 123°22'0 0.0
2018-Mar-16 13:59N 48°25' W 123°22'0 0.0
2018-Mar-16 13:30N 48°25' W 123°22'0 0.0
2018-Mar-16 12:59N 48°25' W 123°22'0 0.0
2018-Mar-16 12:30N 48°25' W 123°22'0 0.0
2018-Mar-16 12:00N 48°25' W 123°22'0 0.0
2018-Mar-16 11:30N 48°25' W 123°22'0 0.0
2018-Mar-16 11:00N 48°25' W 123°22'0 0.0
2018-Mar-16 10:30N 48°25' W 123°22'0 0.0
2018-Mar-16 10:00N 48°25' W 123°22'0 0.0
2018-Mar-16 09:30N 48°25' W 123°22'0 0.0
2018-Mar-16 09:00N 48°25' W 123°22'0 0.0
2018-Mar-16 08:30N 48°25' W 123°22'0 0.0
2018-Mar-16 07:59N 48°25' W 123°22'0 0.0
2018-Mar-16 07:30N 48°25' W 123°22'0 0.0
2018-Mar-16 07:00N 48°25' W 123°22'0 0.0
2018-Mar-16 06:30N 48°25' W 123°22'0 0.0
2018-Mar-16 06:00N 48°25' W 123°22'0 0.0
2018-Mar-16 05:29N 48°25' W 123°22'0 0.0
2018-Mar-16 05:00N 48°25' W 123°22'0 0.0
2018-Mar-16 04:30N 48°25' W 123°22'0 0.0
2018-Mar-16 04:00N 48°25' W 123°22'0 0.0
2018-Mar-16 03:30N 48°25' W 123°22'0 0.0
2018-Mar-16 03:00N 48°25' W 123°22'0 0.0
2018-Mar-16 02:29N 48°25' W 123°22'0 0.0
2018-Mar-16 02:00N 48°25' W 123°22'0 0.0
2018-Mar-16 01:30N 48°25' W 123°22'0 0.0
2018-Mar-16 01:00N 48°25' W 123°22'0 0.0
2018-Mar-16 00:27N 48°25' W 123°22'0 0.0
2018-Mar-16 00:00N 48°25' W 123°22'0 0.0
2018-Mar-15 23:30N 48°25' W 123°22'0 0.0
2018-Mar-15 23:00N 48°25' W 123°22'0 0.0
2018-Mar-15 22:30N 48°25' W 123°22'0 0.0
2018-Mar-15 22:00N 48°25' W 123°22'1 1.6
2018-Mar-15 21:30N 48°25' W 123°24'4 6.6
2018-Mar-15 20:54N 48°23' W 123°18'2 5.2
2018-Mar-15 20:28N 48°25' W 123°17'4 7.8
2018-Mar-15 20:00N 48°29' W 123°15'4 8.6
2018-Mar-15 19:30N 48°33' W 123°17'5 7.9
2018-Mar-15 18:53N 48°37' W 123°21'2 6.7
2018-Mar-15 18:31N 48°40' W 123°21'4 7.1
2018-Mar-15 18:00N 48°43' W 123°24'4 8.4
2018-Mar-15 17:30N 48°41' W 123°30'3 5.4
2018-Mar-15 16:58N 48°39' W 123°27'0 0.0
2018-Mar-15 16:30N 48°39' W 123°27'0 0.0
2018-Mar-15 16:00N 48°39' W 123°27'0 0.0
2018-Mar-15 15:31N 48°39' W 123°27'0 0.0
2018-Mar-15 14:58N 48°39' W 123°27'0 0.0
2018-Mar-15 14:31N 48°39' W 123°27'0 0.0
2018-Mar-15 14:01N 48°39' W 123°27'0 0.0
2018-Mar-15 13:28N 48°39' W 123°27'0 0.0
2018-Mar-15 12:58N 48°39' W 123°27'0 0.0
2018-Mar-15 12:31N 48°39' W 123°27'0 0.0
2018-Mar-15 12:01N 48°39' W 123°27'0 0.0
2018-Mar-15 11:28N 48°39' W 123°27'0 0.0
2018-Mar-15 11:01N 48°39' W 123°27'0 0.0
2018-Mar-15 10:31N 48°39' W 123°27'0 0.0
2018-Mar-15 10:01N 48°39' W 123°27'0 0.0
2018-Mar-15 09:30N 48°39' W 123°27'0 0.0
2018-Mar-15 09:01N 48°39' W 123°27'0 0.0
2018-Mar-15 08:27N 48°39' W 123°27'0 0.0
2018-Mar-15 08:01N 48°39' W 123°27'0 0.0
2018-Mar-15 07:31N 48°39' W 123°27'0 0.0
2018-Mar-15 07:01N 48°39' W 123°27'0 0.0
2018-Mar-15 06:31N 48°39' W 123°27'0 0.0
2018-Mar-15 06:01N 48°39' W 123°27'0 0.0
2018-Mar-15 05:30N 48°39' W 123°27'0 0.0
2018-Mar-15 05:00N 48°39' W 123°27'0 0.0
2018-Mar-15 04:31N 48°39' W 123°27'0 0.0
2018-Mar-15 04:01N 48°39' W 123°27'0 0.0
2018-Mar-15 03:28N 48°39' W 123°27'0 0.0
2018-Mar-15 03:01N 48°39' W 123°27'0 0.0
2018-Mar-15 02:31N 48°39' W 123°27'0 0.0
2018-Mar-15 02:01N 48°39' W 123°27'0 0.0
2018-Mar-15 01:28N 48°39' W 123°27'0 0.0
2018-Mar-15 01:01N 48°39' W 123°27'0 0.0
2018-Mar-15 00:31N 48°39' W 123°27'0 0.0
2018-Mar-15 00:00N 48°39' W 123°27'0 0.0
2018-Mar-14 23:28N 48°39' W 123°27'0 0.0
2018-Mar-14 23:01N 48°39' W 123°27'0 0.0
2018-Mar-14 22:31N 48°39' W 123°27'0 0.0
2018-Mar-14 21:52N 48°39' W 123°27'0 0.0
2018-Mar-14 21:28N 48°39' W 123°27'0 0.0
2018-Mar-14 21:01N 48°39' W 123°27'0 0.0
2018-Mar-14 20:31N 48°39' W 123°27'0 0.0
2018-Mar-14 20:01N 48°39' W 123°27'0 0.0
2018-Mar-14 19:31N 48°39' W 123°27'0 0.0
2018-Mar-14 19:01N 48°39' W 123°27'0 0.0
2018-Mar-14 18:30N 48°39' W 123°27'0 0.0
2018-Mar-14 18:00N 48°39' W 123°27'0 0.0
2018-Mar-14 17:30N 48°39' W 123°27'  
Track history (hours):
 
Tides and Currents Weather Stations Pressure Air Temp Water Temp Dewpoint Dewpoint Depression Visibility Wind Speed Wind Dir Waves Ship Positions

Arrow Post

Last reported at 2018-Mar-16 23:04 UTC. Time now 2018-Apr-21 06:07 UTC.
Position N 48°41' W 123°21'.
Warning: this ship's position is 35 days out of date.

Length 29 m.

Type: Other ship. MMSI: 316001090.

Date/timePositionNaut miles runAvg speedWind from/ knotsBaromVisibWave heightAir tempDewpointWater temp
2018-Mar-16 23:04N 48°41' W 123°21'1 9.6
2018-Mar-16 23:00N 48°40' W 123°21'5 9.1
2018-Mar-16 22:26N 48°35' W 123°19'4 9.1
2018-Mar-16 22:00N 48°32' W 123°17'4 7.3
2018-Mar-16 21:30N 48°28' W 123°15'4 8.5
2018-Mar-16 21:00N 48°24' W 123°17'5 9.0
2018-Mar-16 20:30N 48°24' W 123°24'1 2.8
2018-Mar-16 19:58N 48°25' W 123°22'0 0.0
2018-Mar-16 19:25N 48°25' W 123°22'1 1.3
2018-Mar-16 19:01N 48°25' W 123°23'1 1.0
2018-Mar-16 18:16N 48°25' W 123°24'1 4.0
2018-Mar-16 17:59N 48°25' W 123°22'0 0.0
2018-Mar-16 17:30N 48°25' W 123°22'0 0.0
2018-Mar-16 17:00N 48°25' W 123°22'0 0.0
2018-Mar-16 16:30N 48°25' W 123°22'0 0.0
2018-Mar-16 16:00N 48°25' W 123°22'0 0.0
2018-Mar-16 15:30N 48°25' W 123°22'0 0.0
2018-Mar-16 15:00N 48°25' W 123°22'0 0.0
2018-Mar-16 14:29N 48°25' W 123°22'0 0.0
2018-Mar-16 13:59N 48°25' W 123°22'0 0.0
2018-Mar-16 13:30N 48°25' W 123°22'0 0.0
2018-Mar-16 12:59N 48°25' W 123°22'0 0.0
2018-Mar-16 12:30N 48°25' W 123°22'0 0.0
2018-Mar-16 12:00N 48°25' W 123°22'0 0.0
2018-Mar-16 11:30N 48°25' W 123°22'0 0.0
2018-Mar-16 11:00N 48°25' W 123°22'0 0.0
2018-Mar-16 10:30N 48°25' W 123°22'0 0.0
2018-Mar-16 10:00N 48°25' W 123°22'0 0.0
2018-Mar-16 09:30N 48°25' W 123°22'0 0.0
2018-Mar-16 09:00N 48°25' W 123°22'0 0.0
2018-Mar-16 08:30N 48°25' W 123°22'0 0.0
2018-Mar-16 07:59N 48°25' W 123°22'0 0.0
2018-Mar-16 07:30N 48°25' W 123°22'0 0.0
2018-Mar-16 07:00N 48°25' W 123°22'0 0.0
2018-Mar-16 06:30N 48°25' W 123°22'0 0.0
2018-Mar-16 06:00N 48°25' W 123°22'0 0.0
2018-Mar-16 05:29N 48°25' W 123°22'0 0.0
2018-Mar-16 05:00N 48°25' W 123°22'0 0.0
2018-Mar-16 04:30N 48°25' W 123°22'0 0.0
2018-Mar-16 04:00N 48°25' W 123°22'0 0.0
2018-Mar-16 03:30N 48°25' W 123°22'0 0.0
2018-Mar-16 03:00N 48°25' W 123°22'0 0.0
2018-Mar-16 02:29N 48°25' W 123°22'0 0.0
2018-Mar-16 02:00N 48°25' W 123°22'0 0.0
2018-Mar-16 01:30N 48°25' W 123°22'0 0.0
2018-Mar-16 01:00N 48°25' W 123°22'0 0.0
2018-Mar-16 00:27N 48°25' W 123°22'0 0.0
2018-Mar-16 00:00N 48°25' W 123°22'0 0.0
2018-Mar-15 23:30N 48°25' W 123°22'0 0.0
2018-Mar-15 23:00N 48°25' W 123°22'0 0.0
2018-Mar-15 22:30N 48°25' W 123°22'0 0.0
2018-Mar-15 22:00N 48°25' W 123°22'1 1.6
2018-Mar-15 21:30N 48°25' W 123°24'4 6.6
2018-Mar-15 20:54N 48°23' W 123°18'2 5.2
2018-Mar-15 20:28N 48°25' W 123°17'4 7.8
2018-Mar-15 20:00N 48°29' W 123°15'4 8.6
2018-Mar-15 19:30N 48°33' W 123°17'5 7.9
2018-Mar-15 18:53N 48°37' W 123°21'2 6.7
2018-Mar-15 18:31N 48°40' W 123°21'4 7.1
2018-Mar-15 18:00N 48°43' W 123°24'4 8.4
2018-Mar-15 17:30N 48°41' W 123°30'3 5.4
2018-Mar-15 16:58N 48°39' W 123°27'0 0.0
2018-Mar-15 16:30N 48°39' W 123°27'0 0.0
2018-Mar-15 16:00N 48°39' W 123°27'0 0.0
2018-Mar-15 15:31N 48°39' W 123°27'0 0.0
2018-Mar-15 14:58N 48°39' W 123°27'0 0.0
2018-Mar-15 14:31N 48°39' W 123°27'0 0.0
2018-Mar-15 14:01N 48°39' W 123°27'0 0.0
2018-Mar-15 13:28N 48°39' W 123°27'0 0.0
2018-Mar-15 12:58N 48°39' W 123°27'0 0.0
2018-Mar-15 12:31N 48°39' W 123°27'0 0.0
2018-Mar-15 12:01N 48°39' W 123°27'0 0.0
2018-Mar-15 11:28N 48°39' W 123°27'0 0.0
2018-Mar-15 11:01N 48°39' W 123°27'0 0.0
2018-Mar-15 10:31N 48°39' W 123°27'0 0.0
2018-Mar-15 10:01N 48°39' W 123°27'0 0.0
2018-Mar-15 09:30N 48°39' W 123°27'0 0.0
2018-Mar-15 09:01N 48°39' W 123°27'0 0.0
2018-Mar-15 08:27N 48°39' W 123°27'0 0.0
2018-Mar-15 08:01N 48°39' W 123°27'0 0.0
2018-Mar-15 07:31N 48°39' W 123°27'0 0.0
2018-Mar-15 07:01N 48°39' W 123°27'0 0.0
2018-Mar-15 06:31N 48°39' W 123°27'0 0.0
2018-Mar-15 06:01N 48°39' W 123°27'0 0.0
2018-Mar-15 05:30N 48°39' W 123°27'0 0.0
2018-Mar-15 05:00N 48°39' W 123°27'0 0.0
2018-Mar-15 04:31N 48°39' W 123°27'0 0.0
2018-Mar-15 04:01N 48°39' W 123°27'0 0.0
2018-Mar-15 03:28N 48°39' W 123°27'0 0.0
2018-Mar-15 03:01N 48°39' W 123°27'0 0.0
2018-Mar-15 02:31N 48°39' W 123°27'0 0.0
2018-Mar-15 02:01N 48°39' W 123°27'0 0.0
2018-Mar-15 01:28N 48°39' W 123°27'0 0.0
2018-Mar-15 01:01N 48°39' W 123°27'0 0.0
2018-Mar-15 00:31N 48°39' W 123°27'0 0.0
2018-Mar-15 00:00N 48°39' W 123°27'0 0.0
2018-Mar-14 23:28N 48°39' W 123°27'0 0.0
2018-Mar-14 23:01N 48°39' W 123°27'0 0.0
2018-Mar-14 22:31N 48°39' W 123°27'0 0.0
2018-Mar-14 21:52N 48°39' W 123°27'0 0.0
2018-Mar-14 21:28N 48°39' W 123°27'0 0.0
2018-Mar-14 21:01N 48°39' W 123°27'0 0.0
2018-Mar-14 20:31N 48°39' W 123°27'0 0.0
2018-Mar-14 20:01N 48°39' W 123°27'0 0.0
2018-Mar-14 19:31N 48°39' W 123°27'0 0.0
2018-Mar-14 19:01N 48°39' W 123°27'0 0.0
2018-Mar-14 18:30N 48°39' W 123°27'0 0.0
2018-Mar-14 18:00N 48°39' W 123°27'0 0.0
2018-Mar-14 17:30N 48°39' W 123°27'  

Dump ship's entire track history